sensor_id;sensor_type;location;lat;lon;timestamp;P1;durP1;ratioP1;P2;durP2;ratioP2
72404;SDS011;60395;52.020;113.548;2022-11-30T00:03:35;28.33;;;3.60;;
72404;SDS011;60395;52.020;113.548;2022-11-30T00:06:40;16.05;;;7.95;;
72404;SDS011;60395;52.020;113.548;2022-11-30T00:09:43;15.13;;;6.00;;
72404;SDS011;60395;52.020;113.548;2022-11-30T00:12:47;108.40;;;19.35;;
72404;SDS011;60395;52.020;113.548;2022-11-30T00:15:50;19.17;;;8.40;;
72404;SDS011;60395;52.020;113.548;2022-11-30T00:18:53;14.90;;;7.40;;
72404;SDS011;60395;52.020;113.548;2022-11-30T00:21:58;23.43;;;12.23;;
72404;SDS011;60395;52.020;113.548;2022-11-30T00:25:01;2.08;;;1.88;;
72404;SDS011;60395;52.020;113.548;2022-11-30T00:28:05;14.17;;;5.50;;
72404;SDS011;60395;52.020;113.548;2022-11-30T00:31:10;0.70;;;0.52;;
72404;SDS011;60395;52.020;113.548;2022-11-30T00:34:15;52.53;;;8.13;;
72404;SDS011;60395;52.020;113.548;2022-11-30T00:37:18;6.78;;;1.90;;
72404;SDS011;60395;52.020;113.548;2022-11-30T00:40:21;30.52;;;17.48;;
72404;SDS011;60395;52.020;113.548;2022-11-30T00:43:24;83.85;;;27.67;;
72404;SDS011;60395;52.020;113.548;2022-11-30T00:46:27;29.83;;;16.15;;
72404;SDS011;60395;52.020;113.548;2022-11-30T00:49:30;30.60;;;15.70;;
72404;SDS011;60395;52.020;113.548;2022-11-30T00:52:35;48.97;;;18.80;;
72404;SDS011;60395;52.020;113.548;2022-11-30T00:55:38;17.98;;;6.13;;
72404;SDS011;60395;52.020;113.548;2022-11-30T00:58:41;6.60;;;4.03;;
72404;SDS011;60395;52.020;113.548;2022-11-30T01:01:44;0.90;;;0.90;;
72404;SDS011;60395;52.020;113.548;2022-11-30T01:04:47;5.88;;;2.72;;
72404;SDS011;60395;52.020;113.548;2022-11-30T01:07:50;3.13;;;2.17;;
72404;SDS011;60395;52.020;113.548;2022-11-30T01:10:53;4.20;;;1.70;;
72404;SDS011;60395;52.020;113.548;2022-11-30T01:13:59;2.90;;;1.70;;
72404;SDS011;60395;52.020;113.548;2022-11-30T01:17:03;0.50;;;0.50;;
72404;SDS011;60395;52.020;113.548;2022-11-30T01:20:06;2.63;;;1.80;;
72404;SDS011;60395;52.020;113.548;2022-11-30T01:23:10;1.38;;;1.17;;
72404;SDS011;60395;52.020;113.548;2022-11-30T01:26:13;1.42;;;0.98;;
72404;SDS011;60395;52.020;113.548;2022-11-30T01:29:17;1.37;;;1.17;;
72404;SDS011;60395;52.020;113.548;2022-11-30T01:32:20;2.22;;;1.42;;
72404;SDS011;60395;52.020;113.548;2022-11-30T01:35:23;1.30;;;0.52;;
72404;SDS011;60395;52.020;113.548;2022-11-30T01:38:29;1.48;;;1.10;;
72404;SDS011;60395;52.020;113.548;2022-11-30T01:41:33;3.70;;;2.77;;
72404;SDS011;60395;52.020;113.548;2022-11-30T01:44:51;4.00;;;1.50;;
72404;SDS011;60395;52.020;113.548;2022-11-30T01:47:57;5.10;;;3.27;;
72404;SDS011;60395;52.020;113.548;2022-11-30T01:51:00;37.92;;;4.20;;
72404;SDS011;60395;52.020;113.548;2022-11-30T01:54:04;9.00;;;2.58;;
72404;SDS011;60395;52.020;113.548;2022-11-30T01:57:12;5.67;;;2.53;;
72404;SDS011;60395;52.020;113.548;2022-11-30T02:06:52;6.53;;;2.73;;
72404;SDS011;60395;52.020;113.548;2022-11-30T02:13:04;6.67;;;2.00;;
72404;SDS011;60395;52.020;113.548;2022-11-30T02:30:12;1.77;;;1.20;;
72404;SDS011;60395;52.020;113.548;2022-11-30T02:33:18;1.60;;;1.00;;
72404;SDS011;60395;52.020;113.548;2022-11-30T02:36:26;1.73;;;1.13;;
72404;SDS011;60395;52.020;113.548;2022-11-30T02:39:31;2.23;;;1.83;;
72404;SDS011;60395;52.020;113.548;2022-11-30T02:42:34;2.28;;;1.02;;
72404;SDS011;60395;52.020;113.548;2022-11-30T02:52:06;1.07;;;0.40;;
72404;SDS011;60395;52.020;113.548;2022-11-30T02:55:14;0.57;;;0.27;;
72404;SDS011;60395;52.020;113.548;2022-11-30T02:58:19;2.27;;;1.20;;
72404;SDS011;60395;52.020;113.548;2022-11-30T03:01:23;1.53;;;0.70;;
72404;SDS011;60395;52.020;113.548;2022-11-30T03:04:26;2.85;;;1.60;;
72404;SDS011;60395;52.020;113.548;2022-11-30T03:07:29;5.72;;;3.22;;
72404;SDS011;60395;52.020;113.548;2022-11-30T03:10:32;3.50;;;2.40;;
72404;SDS011;60395;52.020;113.548;2022-11-30T03:13:35;2.60;;;1.23;;
72404;SDS011;60395;52.020;113.548;2022-11-30T03:16:38;9.68;;;3.10;;
72404;SDS011;60395;52.020;113.548;2022-11-30T03:19:41;0.47;;;0.47;;
72404;SDS011;60395;52.020;113.548;2022-11-30T03:22:44;9.57;;;2.47;;
72404;SDS011;60395;52.020;113.548;2022-11-30T03:25:47;12.48;;;3.35;;
72404;SDS011;60395;52.020;113.548;2022-11-30T03:28:50;0.77;;;0.55;;
72404;SDS011;60395;52.020;113.548;2022-11-30T03:31:53;18.70;;;2.07;;
72404;SDS011;60395;52.020;113.548;2022-11-30T03:34:56;10.10;;;3.53;;
72404;SDS011;60395;52.020;113.548;2022-11-30T03:37:59;3.33;;;1.63;;
72404;SDS011;60395;52.020;113.548;2022-11-30T03:41:04;9.68;;;2.47;;
72404;SDS011;60395;52.020;113.548;2022-11-30T03:44:07;4.50;;;0.87;;
72404;SDS011;60395;52.020;113.548;2022-11-30T03:47:10;2.10;;;1.07;;
72404;SDS011;60395;52.020;113.548;2022-11-30T03:50:13;2.27;;;1.20;;
72404;SDS011;60395;52.020;113.548;2022-11-30T03:53:16;2.30;;;1.80;;
72404;SDS011;60395;52.020;113.548;2022-11-30T03:56:20;1.33;;;1.23;;
72404;SDS011;60395;52.020;113.548;2022-11-30T03:59:23;1.30;;;0.97;;
72404;SDS011;60395;52.020;113.548;2022-11-30T04:02:26;2.83;;;2.00;;
72404;SDS011;60395;52.020;113.548;2022-11-30T04:05:29;28.63;;;2.08;;
72404;SDS011;60395;52.020;113.548;2022-11-30T04:08:32;6.35;;;2.33;;
72404;SDS011;60395;52.020;113.548;2022-11-30T04:11:37;3.87;;;1.20;;
72404;SDS011;60395;52.020;113.548;2022-11-30T04:14:40;2.37;;;1.40;;
72404;SDS011;60395;52.020;113.548;2022-11-30T04:17:43;2.53;;;0.82;;
72404;SDS011;60395;52.020;113.548;2022-11-30T04:20:48;2.92;;;0.85;;
72404;SDS011;60395;52.020;113.548;2022-11-30T04:23:53;7.23;;;2.53;;
72404;SDS011;60395;52.020;113.548;2022-11-30T04:26:56;2.88;;;1.15;;
72404;SDS011;60395;52.020;113.548;2022-11-30T04:29:59;4.15;;;2.03;;
72404;SDS011;60395;52.020;113.548;2022-11-30T04:33:02;5.63;;;2.40;;
72404;SDS011;60395;52.020;113.548;2022-11-30T04:39:15;4.17;;;1.53;;
72404;SDS011;60395;52.020;113.548;2022-11-30T04:42:18;1.73;;;1.20;;
72404;SDS011;60395;52.020;113.548;2022-11-30T04:45:21;2.90;;;1.27;;
72404;SDS011;60395;52.020;113.548;2022-11-30T04:48:24;5.82;;;1.77;;
72404;SDS011;60395;52.020;113.548;2022-11-30T04:51:27;3.20;;;1.47;;
72404;SDS011;60395;52.020;113.548;2022-11-30T04:54:30;15.73;;;5.47;;
72404;SDS011;60395;52.020;113.548;2022-11-30T04:57:33;9.10;;;2.57;;
72404;SDS011;60395;52.020;113.548;2022-11-30T05:00:36;6.18;;;1.25;;
72404;SDS011;60395;52.020;113.548;2022-11-30T05:03:39;1.35;;;0.85;;
72404;SDS011;60395;52.020;113.548;2022-11-30T05:06:42;1.43;;;0.90;;
72404;SDS011;60395;52.020;113.548;2022-11-30T05:09:45;3.90;;;1.37;;
72404;SDS011;60395;52.020;113.548;2022-11-30T05:12:48;2.83;;;1.60;;
72404;SDS011;60395;52.020;113.548;2022-11-30T05:15:52;3.47;;;1.30;;
72404;SDS011;60395;52.020;113.548;2022-11-30T05:18:58;2.17;;;1.53;;
72404;SDS011;60395;52.020;113.548;2022-11-30T05:22:01;3.23;;;1.23;;
72404;SDS011;60395;52.020;113.548;2022-11-30T05:25:04;3.10;;;1.87;;
72404;SDS011;60395;52.020;113.548;2022-11-30T05:28:07;7.25;;;1.27;;
72404;SDS011;60395;52.020;113.548;2022-11-30T05:31:10;0.90;;;0.85;;
72404;SDS011;60395;52.020;113.548;2022-11-30T05:34:14;0.80;;;0.30;;
72404;SDS011;60395;52.020;113.548;2022-11-30T05:37:17;0.88;;;0.43;;
72404;SDS011;60395;52.020;113.548;2022-11-30T05:43:24;1.07;;;0.60;;
72404;SDS011;60395;52.020;113.548;2022-11-30T05:46:27;1.40;;;0.47;;
72404;SDS011;60395;52.020;113.548;2022-11-30T05:49:30;3.67;;;1.33;;
72404;SDS011;60395;52.020;113.548;2022-11-30T05:52:33;2.03;;;0.97;;
72404;SDS011;60395;52.020;113.548;2022-11-30T05:55:36;1.98;;;0.95;;
72404;SDS011;60395;52.020;113.548;2022-11-30T05:58:39;0.73;;;0.45;;
72404;SDS011;60395;52.020;113.548;2022-11-30T06:01:43;0.50;;;0.50;;
72404;SDS011;60395;52.020;113.548;2022-11-30T06:04:46;5.70;;;0.82;;
72404;SDS011;60395;52.020;113.548;2022-11-30T06:07:49;6.15;;;0.95;;
72404;SDS011;60395;52.020;113.548;2022-11-30T06:10:58;1.57;;;1.00;;
72404;SDS011;60395;52.020;113.548;2022-11-30T06:14:02;2.20;;;1.27;;
72404;SDS011;60395;52.020;113.548;2022-11-30T06:17:05;0.70;;;0.50;;
72404;SDS011;60395;52.020;113.548;2022-11-30T06:20:08;1.13;;;0.40;;
72404;SDS011;60395;52.020;113.548;2022-11-30T06:23:12;4.82;;;1.77;;
72404;SDS011;60395;52.020;113.548;2022-11-30T06:26:14;0.97;;;0.83;;
72404;SDS011;60395;52.020;113.548;2022-11-30T06:29:18;1.20;;;0.43;;
72404;SDS011;60395;52.020;113.548;2022-11-30T06:32:21;6.72;;;2.25;;
72404;SDS011;60395;52.020;113.548;2022-11-30T06:35:24;0.77;;;0.43;;
72404;SDS011;60395;52.020;113.548;2022-11-30T06:38:27;4.27;;;2.13;;
72404;SDS011;60395;52.020;113.548;2022-11-30T06:41:30;3.40;;;1.45;;
72404;SDS011;60395;52.020;113.548;2022-11-30T06:44:33;2.63;;;1.00;;
72404;SDS011;60395;52.020;113.548;2022-11-30T06:47:36;1.37;;;0.43;;
72404;SDS011;60395;52.020;113.548;2022-11-30T06:50:40;1.55;;;0.47;;
72404;SDS011;60395;52.020;113.548;2022-11-30T06:53:50;1.23;;;0.30;;
72404;SDS011;60395;52.020;113.548;2022-11-30T06:56:53;1.53;;;0.53;;
72404;SDS011;60395;52.020;113.548;2022-11-30T06:59:57;1.80;;;0.73;;
72404;SDS011;60395;52.020;113.548;2022-11-30T07:03:01;0.83;;;0.47;;
72404;SDS011;60395;52.020;113.548;2022-11-30T07:06:09;1.90;;;1.30;;
72404;SDS011;60395;52.020;113.548;2022-11-30T07:09:13;1.13;;;0.90;;
72404;SDS011;60395;52.020;113.548;2022-11-30T07:12:16;1.17;;;0.60;;
72404;SDS011;60395;52.020;113.548;2022-11-30T07:15:19;0.98;;;0.80;;
72404;SDS011;60395;52.020;113.548;2022-11-30T07:18:23;2.83;;;1.33;;
72404;SDS011;60395;52.020;113.548;2022-11-30T07:21:32;0.87;;;0.70;;
72404;SDS011;60395;52.020;113.548;2022-11-30T07:24:35;0.70;;;0.70;;
72404;SDS011;60395;52.020;113.548;2022-11-30T07:27:57;2.30;;;0.93;;
72404;SDS011;60395;52.020;113.548;2022-11-30T07:31:22;0.85;;;0.80;;
72404;SDS011;60395;52.020;113.548;2022-11-30T07:34:26;0.87;;;0.83;;
72404;SDS011;60395;52.020;113.548;2022-11-30T07:37:29;0.75;;;0.75;;
72404;SDS011;60395;52.020;113.548;2022-11-30T07:40:32;0.60;;;0.50;;
72404;SDS011;60395;52.020;113.548;2022-11-30T07:43:36;0.82;;;0.68;;
72404;SDS011;60395;52.020;113.548;2022-11-30T07:46:39;0.65;;;0.60;;
72404;SDS011;60395;52.020;113.548;2022-11-30T07:49:42;3.00;;;1.00;;
72404;SDS011;60395;52.020;113.548;2022-11-30T07:52:45;2.63;;;1.45;;
72404;SDS011;60395;52.020;113.548;2022-11-30T07:55:48;2.53;;;0.83;;
72404;SDS011;60395;52.020;113.548;2022-11-30T07:58:58;0.97;;;0.93;;
72404;SDS011;60395;52.020;113.548;2022-11-30T08:02:03;5.93;;;3.00;;
72404;SDS011;60395;52.020;113.548;2022-11-30T08:05:07;2.03;;;1.60;;
72404;SDS011;60395;52.020;113.548;2022-11-30T08:08:13;4.50;;;2.40;;
72404;SDS011;60395;52.020;113.548;2022-11-30T08:11:17;7.10;;;1.47;;
72404;SDS011;60395;52.020;113.548;2022-11-30T08:14:25;1.27;;;1.17;;
72404;SDS011;60395;52.020;113.548;2022-11-30T08:17:28;1.53;;;1.20;;
72404;SDS011;60395;52.020;113.548;2022-11-30T08:20:31;8.25;;;3.95;;
72404;SDS011;60395;52.020;113.548;2022-11-30T08:23:36;6.97;;;4.63;;
72404;SDS011;60395;52.020;113.548;2022-11-30T08:27:00;10.53;;;4.17;;
72404;SDS011;60395;52.020;113.548;2022-11-30T08:30:03;7.00;;;2.60;;
72404;SDS011;60395;52.020;113.548;2022-11-30T08:36:13;5.00;;;2.70;;
72404;SDS011;60395;52.020;113.548;2022-11-30T08:39:18;8.20;;;3.60;;
72404;SDS011;60395;52.020;113.548;2022-11-30T08:45:26;15.73;;;5.13;;
72404;SDS011;60395;52.020;113.548;2022-11-30T08:48:29;4.38;;;2.22;;
72404;SDS011;60395;52.020;113.548;2022-11-30T08:51:32;3.92;;;1.40;;
72404;SDS011;60395;52.020;113.548;2022-11-30T08:54:56;2.25;;;1.95;;
72404;SDS011;60395;52.020;113.548;2022-11-30T08:57:59;1.70;;;1.25;;
72404;SDS011;60395;52.020;113.548;2022-11-30T09:01:09;5.43;;;2.97;;
72404;SDS011;60395;52.020;113.548;2022-11-30T09:04:25;3.97;;;1.73;;
72404;SDS011;60395;52.020;113.548;2022-11-30T09:07:28;0.77;;;0.70;;
72404;SDS011;60395;52.020;113.548;2022-11-30T09:10:31;1.08;;;0.40;;
72404;SDS011;60395;52.020;113.548;2022-11-30T09:13:34;1.75;;;1.15;;
72404;SDS011;60395;52.020;113.548;2022-11-30T09:16:37;3.47;;;1.80;;
72404;SDS011;60395;52.020;113.548;2022-11-30T09:19:41;6.10;;;4.28;;
72404;SDS011;60395;52.020;113.548;2022-11-30T09:22:44;8.10;;;2.45;;
72404;SDS011;60395;52.020;113.548;2022-11-30T09:25:53;13.73;;;2.80;;
72404;SDS011;60395;52.020;113.548;2022-11-30T09:28:57;2.10;;;0.70;;
72404;SDS011;60395;52.020;113.548;2022-11-30T09:32:00;9.50;;;3.67;;
72404;SDS011;60395;52.020;113.548;2022-11-30T09:35:03;6.18;;;2.88;;
72404;SDS011;60395;52.020;113.548;2022-11-30T09:38:13;4.90;;;3.03;;
72404;SDS011;60395;52.020;113.548;2022-11-30T09:44:38;6.40;;;3.80;;
72404;SDS011;60395;52.020;113.548;2022-11-30T09:51:16;5.23;;;2.70;;
72404;SDS011;60395;52.020;113.548;2022-11-30T09:54:27;8.83;;;5.37;;
72404;SDS011;60395;52.020;113.548;2022-11-30T09:57:45;11.80;;;5.37;;
72404;SDS011;60395;52.020;113.548;2022-11-30T10:00:51;27.03;;;7.63;;
72404;SDS011;60395;52.020;113.548;2022-11-30T10:03:54;39.57;;;15.33;;
72404;SDS011;60395;52.020;113.548;2022-11-30T10:26:54;35.00;;;15.63;;
72404;SDS011;60395;52.020;113.548;2022-11-30T10:29:59;18.70;;;6.97;;
72404;SDS011;60395;52.020;113.548;2022-11-30T10:33:08;9.43;;;4.27;;
72404;SDS011;60395;52.020;113.548;2022-11-30T10:36:31;18.07;;;9.63;;
72404;SDS011;60395;52.020;113.548;2022-11-30T10:42:47;12.50;;;5.33;;
72404;SDS011;60395;52.020;113.548;2022-11-30T10:45:54;22.30;;;8.50;;
72404;SDS011;60395;52.020;113.548;2022-11-30T10:49:10;29.95;;;9.60;;
72404;SDS011;60395;52.020;113.548;2022-11-30T10:52:17;27.73;;;10.47;;
72404;SDS011;60395;52.020;113.548;2022-11-30T10:55:37;27.10;;;10.10;;
72404;SDS011;60395;52.020;113.548;2022-11-30T10:58:49;8.30;;;4.03;;
72404;SDS011;60395;52.020;113.548;2022-11-30T11:01:56;26.43;;;9.43;;
72404;SDS011;60395;52.020;113.548;2022-11-30T11:05:19;6.47;;;3.35;;
72404;SDS011;60395;52.020;113.548;2022-11-30T11:08:23;8.70;;;5.90;;
72404;SDS011;60395;52.020;113.548;2022-11-30T11:11:36;6.30;;;3.47;;
72404;SDS011;60395;52.020;113.548;2022-11-30T11:14:40;14.85;;;5.88;;
72404;SDS011;60395;52.020;113.548;2022-11-30T11:17:43;23.52;;;5.15;;
72404;SDS011;60395;52.020;113.548;2022-11-30T11:20:47;14.82;;;4.88;;
72404;SDS011;60395;52.020;113.548;2022-11-30T11:23:56;3.73;;;2.87;;
72404;SDS011;60395;52.020;113.548;2022-11-30T11:26:59;4.93;;;3.70;;
72404;SDS011;60395;52.020;113.548;2022-11-30T11:30:05;15.02;;;4.97;;
72404;SDS011;60395;52.020;113.548;2022-11-30T11:36:19;8.20;;;3.60;;
72404;SDS011;60395;52.020;113.548;2022-11-30T11:39:28;7.03;;;5.17;;
72404;SDS011;60395;52.020;113.548;2022-11-30T11:42:35;1.20;;;1.08;;
72404;SDS011;60395;52.020;113.548;2022-11-30T11:45:52;7.60;;;4.00;;
72404;SDS011;60395;52.020;113.548;2022-11-30T11:48:58;10.90;;;3.93;;
72404;SDS011;60395;52.020;113.548;2022-11-30T11:52:05;15.93;;;5.77;;
72404;SDS011;60395;52.020;113.548;2022-11-30T11:55:17;7.10;;;4.67;;
72404;SDS011;60395;52.020;113.548;2022-11-30T11:58:25;4.63;;;2.97;;
72404;SDS011;60395;52.020;113.548;2022-11-30T12:04:53;6.40;;;2.90;;
72404;SDS011;60395;52.020;113.548;2022-11-30T12:14:45;7.63;;;2.70;;
72404;SDS011;60395;52.020;113.548;2022-11-30T12:28:21;13.93;;;5.17;;
72404;SDS011;60395;52.020;113.548;2022-11-30T12:32:19;5.00;;;3.67;;
72404;SDS011;60395;52.020;113.548;2022-11-30T12:38:36;6.40;;;2.30;;
72404;SDS011;60395;52.020;113.548;2022-11-30T12:41:47;6.53;;;2.70;;
72404;SDS011;60395;52.020;113.548;2022-11-30T12:44:56;5.07;;;2.97;;
72404;SDS011;60395;52.020;113.548;2022-11-30T12:51:32;16.43;;;5.70;;
72404;SDS011;60395;52.020;113.548;2022-11-30T13:01:37;8.90;;;3.40;;
72404;SDS011;60395;52.020;113.548;2022-11-30T13:04:54;10.93;;;3.67;;
72404;SDS011;60395;52.020;113.548;2022-11-30T13:08:04;3.63;;;2.27;;
72404;SDS011;60395;52.020;113.548;2022-11-30T13:11:36;8.70;;;5.50;;
72404;SDS011;60395;52.020;113.548;2022-11-30T13:14:41;4.97;;;3.40;;
72404;SDS011;60395;52.020;113.548;2022-11-30T13:17:45;5.57;;;3.57;;
72404;SDS011;60395;52.020;113.548;2022-11-30T13:20:54;2.47;;;1.90;;
72404;SDS011;60395;52.020;113.548;2022-11-30T13:27:29;22.90;;;11.80;;
72404;SDS011;60395;52.020;113.548;2022-11-30T13:30:43;10.17;;;5.70;;
72404;SDS011;60395;52.020;113.548;2022-11-30T13:33:59;7.77;;;4.10;;
72404;SDS011;60395;52.020;113.548;2022-11-30T13:37:10;11.85;;;3.70;;
72404;SDS011;60395;52.020;113.548;2022-11-30T13:40:25;10.57;;;4.83;;
72404;SDS011;60395;52.020;113.548;2022-11-30T13:43:28;5.80;;;3.03;;
72404;SDS011;60395;52.020;113.548;2022-11-30T13:46:50;8.73;;;5.77;;
72404;SDS011;60395;52.020;113.548;2022-11-30T13:49:57;15.53;;;7.30;;
72404;SDS011;60395;52.020;113.548;2022-11-30T13:53:19;11.50;;;5.63;;
72404;SDS011;60395;52.020;113.548;2022-11-30T13:56:32;6.40;;;3.90;;
72404;SDS011;60395;52.020;113.548;2022-11-30T13:59:37;50.47;;;5.40;;
72404;SDS011;60395;52.020;113.548;2022-11-30T14:02:49;1.90;;;1.50;;
72404;SDS011;60395;52.020;113.548;2022-11-30T14:13:02;4.90;;;2.67;;
72404;SDS011;60395;52.020;113.548;2022-11-30T14:16:24;5.00;;;2.43;;
72404;SDS011;60395;52.020;113.548;2022-11-30T14:19:31;11.00;;;3.67;;
72404;SDS011;60395;52.020;113.548;2022-11-30T14:22:34;4.60;;;3.13;;
72404;SDS011;60395;52.020;113.548;2022-11-30T14:25:45;4.50;;;3.37;;
72404;SDS011;60395;52.020;113.548;2022-11-30T14:32:18;10.80;;;4.95;;
72404;SDS011;60395;52.020;113.548;2022-11-30T14:35:29;3.97;;;2.43;;
72404;SDS011;60395;52.020;113.548;2022-11-30T14:41:41;14.27;;;5.93;;
72404;SDS011;60395;52.020;113.548;2022-11-30T14:44:44;9.00;;;3.47;;
72404;SDS011;60395;52.020;113.548;2022-11-30T14:47:49;15.10;;;3.67;;
72404;SDS011;60395;52.020;113.548;2022-11-30T14:50:56;9.43;;;4.57;;
72404;SDS011;60395;52.020;113.548;2022-11-30T14:54:04;5.10;;;1.67;;
72404;SDS011;60395;52.020;113.548;2022-11-30T15:00:29;3.63;;;1.87;;
72404;SDS011;60395;52.020;113.548;2022-11-30T15:03:39;3.83;;;1.73;;
72404;SDS011;60395;52.020;113.548;2022-11-30T15:06:42;4.07;;;1.05;;
72404;SDS011;60395;52.020;113.548;2022-11-30T15:09:46;0.82;;;0.80;;
72404;SDS011;60395;52.020;113.548;2022-11-30T15:12:52;0.23;;;0.23;;
72404;SDS011;60395;52.020;113.548;2022-11-30T15:15:56;2.90;;;1.77;;
72404;SDS011;60395;52.020;113.548;2022-11-30T15:18:59;1.27;;;0.90;;
72404;SDS011;60395;52.020;113.548;2022-11-30T15:22:28;2.63;;;1.20;;
72404;SDS011;60395;52.020;113.548;2022-11-30T15:25:37;9.37;;;8.73;;
72404;SDS011;60395;52.020;113.548;2022-11-30T15:28:46;3.00;;;1.63;;
72404;SDS011;60395;52.020;113.548;2022-11-30T15:31:58;1.70;;;0.85;;
72404;SDS011;60395;52.020;113.548;2022-11-30T15:35:03;1.87;;;1.17;;
72404;SDS011;60395;52.020;113.548;2022-11-30T15:38:07;3.17;;;1.45;;
72404;SDS011;60395;52.020;113.548;2022-11-30T15:41:17;1.48;;;1.13;;
72404;SDS011;60395;52.020;113.548;2022-11-30T15:44:23;2.20;;;0.83;;
72404;SDS011;60395;52.020;113.548;2022-11-30T15:47:37;1.70;;;1.07;;
72404;SDS011;60395;52.020;113.548;2022-11-30T15:50:40;4.63;;;2.88;;
72404;SDS011;60395;52.020;113.548;2022-11-30T15:53:47;1.90;;;1.15;;
72404;SDS011;60395;52.020;113.548;2022-11-30T15:56:55;2.87;;;1.90;;
72404;SDS011;60395;52.020;113.548;2022-11-30T16:00:06;4.17;;;1.83;;
72404;SDS011;60395;52.020;113.548;2022-11-30T16:03:21;4.53;;;1.77;;
72404;SDS011;60395;52.020;113.548;2022-11-30T16:06:25;2.40;;;1.38;;
72404;SDS011;60395;52.020;113.548;2022-11-30T16:09:35;5.90;;;3.40;;
72404;SDS011;60395;52.020;113.548;2022-11-30T16:12:40;0.40;;;0.40;;
72404;SDS011;60395;52.020;113.548;2022-11-30T16:15:45;3.03;;;1.87;;
72404;SDS011;60395;52.020;113.548;2022-11-30T16:18:50;6.17;;;2.47;;
72404;SDS011;60395;52.020;113.548;2022-11-30T16:21:53;4.00;;;3.53;;
72404;SDS011;60395;52.020;113.548;2022-11-30T16:24:57;0.17;;;0.17;;
72404;SDS011;60395;52.020;113.548;2022-11-30T16:28:00;1.48;;;0.70;;
72404;SDS011;60395;52.020;113.548;2022-11-30T16:31:04;0.30;;;0.22;;
72404;SDS011;60395;52.020;113.548;2022-11-30T16:34:08;4.93;;;1.70;;
72404;SDS011;60395;52.020;113.548;2022-11-30T16:37:13;1.90;;;0.60;;
72404;SDS011;60395;52.020;113.548;2022-11-30T16:40:16;0.95;;;0.77;;
72404;SDS011;60395;52.020;113.548;2022-11-30T16:43:23;0.87;;;0.87;;
72404;SDS011;60395;52.020;113.548;2022-11-30T16:46:29;0.10;;;0.10;;
72404;SDS011;60395;52.020;113.548;2022-11-30T16:49:32;1.17;;;1.02;;
72404;SDS011;60395;52.020;113.548;2022-11-30T16:52:36;0.60;;;0.35;;
72404;SDS011;60395;52.020;113.548;2022-11-30T16:58:42;1.33;;;1.03;;
72404;SDS011;60395;52.020;113.548;2022-11-30T17:01:46;0.90;;;0.85;;
72404;SDS011;60395;52.020;113.548;2022-11-30T17:04:54;2.07;;;1.13;;
72404;SDS011;60395;52.020;113.548;2022-11-30T17:07:57;1.60;;;0.68;;
72404;SDS011;60395;52.020;113.548;2022-11-30T17:11:00;3.17;;;2.42;;
72404;SDS011;60395;52.020;113.548;2022-11-30T17:14:03;0.22;;;0.22;;
72404;SDS011;60395;52.020;113.548;2022-11-30T17:17:07;0.88;;;0.55;;
72404;SDS011;60395;52.020;113.548;2022-11-30T17:20:11;3.13;;;0.85;;
72404;SDS011;60395;52.020;113.548;2022-11-30T17:23:18;0.33;;;0.33;;
72404;SDS011;60395;52.020;113.548;2022-11-30T17:26:21;0.43;;;0.43;;
72404;SDS011;60395;52.020;113.548;2022-11-30T17:29:24;0.22;;;0.22;;
72404;SDS011;60395;52.020;113.548;2022-11-30T17:32:27;0.40;;;0.40;;
72404;SDS011;60395;52.020;113.548;2022-11-30T17:35:30;0.80;;;0.80;;
72404;SDS011;60395;52.020;113.548;2022-11-30T17:38:33;0.77;;;0.20;;
72404;SDS011;60395;52.020;113.548;2022-11-30T17:44:40;1.73;;;1.30;;
72404;SDS011;60395;52.020;113.548;2022-11-30T17:47:43;1.02;;;0.63;;
72404;SDS011;60395;52.020;113.548;2022-11-30T17:50:48;0.38;;;0.38;;
72404;SDS011;60395;52.020;113.548;2022-11-30T17:53:53;1.03;;;0.40;;
72404;SDS011;60395;52.020;113.548;2022-11-30T17:56:56;0.70;;;0.30;;
72404;SDS011;60395;52.020;113.548;2022-11-30T17:59:59;0.93;;;0.50;;
72404;SDS011;60395;52.020;113.548;2022-11-30T18:03:05;4.63;;;2.27;;
72404;SDS011;60395;52.020;113.548;2022-11-30T18:06:08;1.08;;;0.95;;
72404;SDS011;60395;52.020;113.548;2022-11-30T18:09:11;1.67;;;1.48;;
72404;SDS011;60395;52.020;113.548;2022-11-30T18:12:14;3.70;;;1.25;;
72404;SDS011;60395;52.020;113.548;2022-11-30T18:15:17;1.03;;;0.47;;
72404;SDS011;60395;52.020;113.548;2022-11-30T18:18:20;0.50;;;0.50;;
72404;SDS011;60395;52.020;113.548;2022-11-30T18:21:25;1.17;;;0.68;;
72404;SDS011;60395;52.020;113.548;2022-11-30T18:24:30;16.33;;;0.83;;
72404;SDS011;60395;52.020;113.548;2022-11-30T18:27:33;1.27;;;0.88;;
72404;SDS011;60395;52.020;113.548;2022-11-30T18:30:36;1.73;;;1.23;;
72404;SDS011;60395;52.020;113.548;2022-11-30T18:33:39;3.10;;;0.30;;
72404;SDS011;60395;52.020;113.548;2022-11-30T18:36:42;0.40;;;0.20;;
72404;SDS011;60395;52.020;113.548;2022-11-30T18:39:46;1.15;;;0.30;;
72404;SDS011;60395;52.020;113.548;2022-11-30T18:42:49;1.65;;;1.00;;
72404;SDS011;60395;52.020;113.548;2022-11-30T18:45:52;0.30;;;0.30;;
72404;SDS011;60395;52.020;113.548;2022-11-30T18:48:55;0.77;;;0.75;;
72404;SDS011;60395;52.020;113.548;2022-11-30T18:52:00;0.63;;;0.37;;
72404;SDS011;60395;52.020;113.548;2022-11-30T18:55:03;3.63;;;1.27;;
72404;SDS011;60395;52.020;113.548;2022-11-30T18:58:06;1.73;;;1.17;;
72404;SDS011;60395;52.020;113.548;2022-11-30T19:01:11;0.17;;;0.17;;
72404;SDS011;60395;52.020;113.548;2022-11-30T19:04:16;0.80;;;0.47;;
72404;SDS011;60395;52.020;113.548;2022-11-30T19:07:19;2.17;;;0.73;;
72404;SDS011;60395;52.020;113.548;2022-11-30T19:10:22;0.40;;;0.40;;
72404;SDS011;60395;52.020;113.548;2022-11-30T19:13:25;0.20;;;0.20;;
72404;SDS011;60395;52.020;113.548;2022-11-30T19:16:29;0.75;;;0.50;;
72404;SDS011;60395;52.020;113.548;2022-11-30T19:19:33;0.50;;;0.50;;
72404;SDS011;60395;52.020;113.548;2022-11-30T19:22:36;0.20;;;0.20;;
72404;SDS011;60395;52.020;113.548;2022-11-30T19:25:39;0.70;;;0.60;;
72404;SDS011;60395;52.020;113.548;2022-11-30T19:28:42;0.27;;;0.27;;
72404;SDS011;60395;52.020;113.548;2022-11-30T19:31:46;0.60;;;0.53;;
72404;SDS011;60395;52.020;113.548;2022-11-30T19:34:49;0.73;;;0.45;;
72404;SDS011;60395;52.020;113.548;2022-11-30T19:37:52;1.73;;;1.63;;
72404;SDS011;60395;52.020;113.548;2022-11-30T19:40:56;4.28;;;1.27;;
72404;SDS011;60395;52.020;113.548;2022-11-30T19:43:59;1.75;;;0.95;;
72404;SDS011;60395;52.020;113.548;2022-11-30T19:47:05;0.63;;;0.63;;
72404;SDS011;60395;52.020;113.548;2022-11-30T19:50:08;1.65;;;0.75;;
72404;SDS011;60395;52.020;113.548;2022-11-30T19:53:11;0.15;;;0.15;;
72404;SDS011;60395;52.020;113.548;2022-11-30T19:56:15;0.10;;;0.10;;
72404;SDS011;60395;52.020;113.548;2022-11-30T20:02:21;0.20;;;0.20;;
72404;SDS011;60395;52.020;113.548;2022-11-30T20:05:25;0.10;;;0.10;;
72404;SDS011;60395;52.020;113.548;2022-11-30T20:08:28;1.60;;;0.95;;
72404;SDS011;60395;52.020;113.548;2022-11-30T20:11:31;0.20;;;0.20;;
72404;SDS011;60395;52.020;113.548;2022-11-30T20:14:37;0.60;;;0.47;;
72404;SDS011;60395;52.020;113.548;2022-11-30T20:17:41;0.20;;;0.20;;
72404;SDS011;60395;52.020;113.548;2022-11-30T20:20:44;0.52;;;0.30;;
72404;SDS011;60395;52.020;113.548;2022-11-30T20:23:47;0.55;;;0.40;;